sensor_id;sensor_type;location;lat;lon;timestamp;temperature;humidity
65044;DHT22;51617;48.158;16.464;2022-12-29T00:02:24;2.90;96.90
65044;DHT22;51617;48.158;16.464;2022-12-29T00:04:50;2.90;97.00
65044;DHT22;51617;48.158;16.464;2022-12-29T00:07:16;2.90;96.80
65044;DHT22;51617;48.158;16.464;2022-12-29T00:09:42;2.90;96.90
65044;DHT22;51617;48.158;16.464;2022-12-29T00:12:08;2.90;96.60
65044;DHT22;51617;48.158;16.464;2022-12-29T00:14:33;2.90;96.60
65044;DHT22;51617;48.158;16.464;2022-12-29T00:17:18;2.80;96.40
65044;DHT22;51617;48.158;16.464;2022-12-29T00:19:43;2.80;96.30
65044;DHT22;51617;48.158;16.464;2022-12-29T00:22:27;2.70;96.30
65044;DHT22;51617;48.158;16.464;2022-12-29T00:25:12;2.70;96.30
65044;DHT22;51617;48.158;16.464;2022-12-29T00:27:57;2.70;96.50
65044;DHT22;51617;48.158;16.464;2022-12-29T00:30:41;2.70;96.20
65044;DHT22;51617;48.158;16.464;2022-12-29T00:33:29;2.60;95.80
65044;DHT22;51617;48.158;16.464;2022-12-29T00:38:41;2.20;96.10
65044;DHT22;51617;48.158;16.464;2022-12-29T00:41:27;2.10;96.30
65044;DHT22;51617;48.158;16.464;2022-12-29T00:44:13;2.00;96.20
65044;DHT22;51617;48.158;16.464;2022-12-29T00:46:42;1.80;96.50
65044;DHT22;51617;48.158;16.464;2022-12-29T00:49:11;1.90;97.20
65044;DHT22;51617;48.158;16.464;2022-12-29T00:51:57;1.90;97.20
65044;DHT22;51617;48.158;16.464;2022-12-29T00:54:23;2.00;97.20
65044;DHT22;51617;48.158;16.464;2022-12-29T00:56:51;2.00;96.90
65044;DHT22;51617;48.158;16.464;2022-12-29T00:59:18;1.90;97.10
65044;DHT22;51617;48.158;16.464;2022-12-29T01:01:44;2.00;97.70
65044;DHT22;51617;48.158;16.464;2022-12-29T01:04:11;2.00;97.70
65044;DHT22;51617;48.158;16.464;2022-12-29T01:06:39;2.10;97.80
65044;DHT22;51617;48.158;16.464;2022-12-29T01:09:05;2.20;98.00
65044;DHT22;51617;48.158;16.464;2022-12-29T01:11:52;2.20;97.40
65044;DHT22;51617;48.158;16.464;2022-12-29T01:14:19;2.20;97.60
65044;DHT22;51617;48.158;16.464;2022-12-29T01:16:45;2.20;97.80
65044;DHT22;51617;48.158;16.464;2022-12-29T01:19:11;2.20;97.90
65044;DHT22;51617;48.158;16.464;2022-12-29T01:21:37;2.30;97.80
65044;DHT22;51617;48.158;16.464;2022-12-29T01:24:03;2.30;97.50
65044;DHT22;51617;48.158;16.464;2022-12-29T01:26:29;2.20;96.90
65044;DHT22;51617;48.158;16.464;2022-12-29T01:28:55;2.20;97.50
65044;DHT22;51617;48.158;16.464;2022-12-29T01:31:21;2.20;97.40
65044;DHT22;51617;48.158;16.464;2022-12-29T01:33:46;2.20;97.10
65044;DHT22;51617;48.158;16.464;2022-12-29T01:36:14;2.20;97.30
65044;DHT22;51617;48.158;16.464;2022-12-29T01:38:41;2.30;97.40
65044;DHT22;51617;48.158;16.464;2022-12-29T01:41:08;2.30;97.50
65044;DHT22;51617;48.158;16.464;2022-12-29T01:43:45;2.30;97.50
65044;DHT22;51617;48.158;16.464;2022-12-29T01:48:55;2.30;98.10
65044;DHT22;51617;48.158;16.464;2022-12-29T01:51:24;2.20;98.00
65044;DHT22;51617;48.158;16.464;2022-12-29T01:53:52;2.10;97.90
65044;DHT22;51617;48.158;16.464;2022-12-29T01:56:19;2.10;98.10
65044;DHT22;51617;48.158;16.464;2022-12-29T01:58:48;2.10;98.10
65044;DHT22;51617;48.158;16.464;2022-12-29T02:01:15;2.00;98.10
65044;DHT22;51617;48.158;16.464;2022-12-29T02:03:42;2.00;98.20
65044;DHT22;51617;48.158;16.464;2022-12-29T02:06:23;2.00;98.30
65044;DHT22;51617;48.158;16.464;2022-12-29T02:08:53;2.00;98.20
65044;DHT22;51617;48.158;16.464;2022-12-29T02:11:21;2.00;98.30
65044;DHT22;51617;48.158;16.464;2022-12-29T02:13:48;2.10;98.40
65044;DHT22;51617;48.158;16.464;2022-12-29T02:22:27;2.20;98.60
65044;DHT22;51617;48.158;16.464;2022-12-29T02:43:40;1.90;98.30
65044;DHT22;51617;48.158;16.464;2022-12-29T02:46:17;2.00;98.40
65044;DHT22;51617;48.158;16.464;2022-12-29T02:49:06;2.10;98.30
65044;DHT22;51617;48.158;16.464;2022-12-29T02:51:50;2.00;97.60
65044;DHT22;51617;48.158;16.464;2022-12-29T02:54:19;1.80;97.20
65044;DHT22;51617;48.158;16.464;2022-12-29T02:57:05;1.70;97.20
65044;DHT22;51617;48.158;16.464;2022-12-29T02:59:30;1.70;97.60
65044;DHT22;51617;48.158;16.464;2022-12-29T03:02:09;1.70;97.70
65044;DHT22;51617;48.158;16.464;2022-12-29T03:05:07;1.60;97.00
65044;DHT22;51617;48.158;16.464;2022-12-29T03:07:54;1.50;98.00
65044;DHT22;51617;48.158;16.464;2022-12-29T03:15:46;1.60;98.00
65044;DHT22;51617;48.158;16.464;2022-12-29T03:21:12;1.50;97.60
65044;DHT22;51617;48.158;16.464;2022-12-29T03:23:42;1.50;97.60
65044;DHT22;51617;48.158;16.464;2022-12-29T03:26:11;1.50;98.40
65044;DHT22;51617;48.158;16.464;2022-12-29T03:28:51;1.60;98.50
65044;DHT22;51617;48.158;16.464;2022-12-29T03:31:19;1.60;98.50
65044;DHT22;51617;48.158;16.464;2022-12-29T03:33:46;1.70;98.70
65044;DHT22;51617;48.158;16.464;2022-12-29T03:36:18;2.00;99.00
65044;DHT22;51617;48.158;16.464;2022-12-29T03:38:52;2.00;98.90
65044;DHT22;51617;48.158;16.464;2022-12-29T03:41:24;2.20;98.90
65044;DHT22;51617;48.158;16.464;2022-12-29T03:43:51;2.30;98.60
65044;DHT22;51617;48.158;16.464;2022-12-29T03:46:16;2.30;98.40
65044;DHT22;51617;48.158;16.464;2022-12-29T03:48:42;2.30;98.40
65044;DHT22;51617;48.158;16.464;2022-12-29T03:51:08;2.30;98.00
65044;DHT22;51617;48.158;16.464;2022-12-29T03:53:33;2.20;98.10
65044;DHT22;51617;48.158;16.464;2022-12-29T03:55:59;2.40;98.20
65044;DHT22;51617;48.158;16.464;2022-12-29T03:58:25;2.30;97.30
65044;DHT22;51617;48.158;16.464;2022-12-29T04:00:50;2.20;97.10
65044;DHT22;51617;48.158;16.464;2022-12-29T04:03:16;2.00;96.70
65044;DHT22;51617;48.158;16.464;2022-12-29T04:05:42;1.80;97.10
65044;DHT22;51617;48.158;16.464;2022-12-29T04:08:07;1.80;97.50
65044;DHT22;51617;48.158;16.464;2022-12-29T04:10:33;1.80;97.80
65044;DHT22;51617;48.158;16.464;2022-12-29T04:12:59;1.70;97.60
65044;DHT22;51617;48.158;16.464;2022-12-29T04:15:25;1.60;97.50
65044;DHT22;51617;48.158;16.464;2022-12-29T04:17:51;1.50;97.60
65044;DHT22;51617;48.158;16.464;2022-12-29T04:20:17;1.40;98.00
65044;DHT22;51617;48.158;16.464;2022-12-29T04:23:03;1.40;97.90
65044;DHT22;51617;48.158;16.464;2022-12-29T04:25:30;1.40;98.30
65044;DHT22;51617;48.158;16.464;2022-12-29T04:27:56;1.50;98.80
65044;DHT22;51617;48.158;16.464;2022-12-29T04:30:22;1.40;98.10
65044;DHT22;51617;48.158;16.464;2022-12-29T04:32:48;1.40;98.20
65044;DHT22;51617;48.158;16.464;2022-12-29T04:35:14;1.40;98.50
65044;DHT22;51617;48.158;16.464;2022-12-29T04:37:40;1.50;98.50
65044;DHT22;51617;48.158;16.464;2022-12-29T04:40:06;1.50;98.60
65044;DHT22;51617;48.158;16.464;2022-12-29T04:42:32;1.50;98.50
65044;DHT22;51617;48.158;16.464;2022-12-29T04:44:57;1.50;98.60
65044;DHT22;51617;48.158;16.464;2022-12-29T04:47:23;1.50;98.90
65044;DHT22;51617;48.158;16.464;2022-12-29T04:49:49;1.50;99.00
65044;DHT22;51617;48.158;16.464;2022-12-29T04:52:14;1.50;99.10
65044;DHT22;51617;48.158;16.464;2022-12-29T04:54:40;1.50;99.30
65044;DHT22;51617;48.158;16.464;2022-12-29T04:57:06;1.50;99.30
65044;DHT22;51617;48.158;16.464;2022-12-29T04:59:31;1.50;99.30
65044;DHT22;51617;48.158;16.464;2022-12-29T05:01:57;1.50;99.30
65044;DHT22;51617;48.158;16.464;2022-12-29T05:04:23;1.50;99.30
65044;DHT22;51617;48.158;16.464;2022-12-29T05:06:48;1.50;99.50
65044;DHT22;51617;48.158;16.464;2022-12-29T05:09:14;1.60;99.60
65044;DHT22;51617;48.158;16.464;2022-12-29T05:11:40;1.60;99.50
65044;DHT22;51617;48.158;16.464;2022-12-29T05:14:05;1.80;99.50
65044;DHT22;51617;48.158;16.464;2022-12-29T05:16:31;1.80;99.50
65044;DHT22;51617;48.158;16.464;2022-12-29T05:18:57;2.00;99.50
65044;DHT22;51617;48.158;16.464;2022-12-29T05:21:22;2.00;99.40
65044;DHT22;51617;48.158;16.464;2022-12-29T05:23:48;2.00;99.30
65044;DHT22;51617;48.158;16.464;2022-12-29T05:26:14;2.00;99.20
65044;DHT22;51617;48.158;16.464;2022-12-29T05:28:39;2.00;99.10
65044;DHT22;51617;48.158;16.464;2022-12-29T05:31:05;2.00;99.10
65044;DHT22;51617;48.158;16.464;2022-12-29T05:33:31;2.00;99.20
65044;DHT22;51617;48.158;16.464;2022-12-29T05:35:57;2.00;98.70
65044;DHT22;51617;48.158;16.464;2022-12-29T05:38:22;1.80;98.30
65044;DHT22;51617;48.158;16.464;2022-12-29T05:40:48;1.60;98.70
65044;DHT22;51617;48.158;16.464;2022-12-29T05:43:14;1.50;98.80
65044;DHT22;51617;48.158;16.464;2022-12-29T05:45:39;1.50;99.00
65044;DHT22;51617;48.158;16.464;2022-12-29T05:48:05;1.50;99.40
65044;DHT22;51617;48.158;16.464;2022-12-29T05:50:31;1.50;99.60
65044;DHT22;51617;48.158;16.464;2022-12-29T05:52:57;1.50;99.70
65044;DHT22;51617;48.158;16.464;2022-12-29T05:55:22;1.60;99.80
65044;DHT22;51617;48.158;16.464;2022-12-29T05:57:48;1.60;99.60
65044;DHT22;51617;48.158;16.464;2022-12-29T06:00:14;1.60;99.70
65044;DHT22;51617;48.158;16.464;2022-12-29T06:02:40;1.70;99.70
65044;DHT22;51617;48.158;16.464;2022-12-29T06:05:06;1.70;99.90
65044;DHT22;51617;48.158;16.464;2022-12-29T06:07:31;1.80;99.90
65044;DHT22;51617;48.158;16.464;2022-12-29T06:09:57;1.90;99.90
65044;DHT22;51617;48.158;16.464;2022-12-29T06:12:23;2.00;99.90
65044;DHT22;51617;48.158;16.464;2022-12-29T06:14:48;2.00;99.90
65044;DHT22;51617;48.158;16.464;2022-12-29T06:17:14;2.00;99.90
65044;DHT22;51617;48.158;16.464;2022-12-29T06:19:40;2.10;99.90
65044;DHT22;51617;48.158;16.464;2022-12-29T06:22:05;2.20;99.90
65044;DHT22;51617;48.158;16.464;2022-12-29T06:24:32;2.20;99.90
65044;DHT22;51617;48.158;16.464;2022-12-29T06:26:58;2.30;99.90
65044;DHT22;51617;48.158;16.464;2022-12-29T06:29:23;2.30;99.90
65044;DHT22;51617;48.158;16.464;2022-12-29T06:31:49;2.30;99.90
65044;DHT22;51617;48.158;16.464;2022-12-29T06:34:16;2.30;99.90
65044;DHT22;51617;48.158;16.464;2022-12-29T06:36:42;2.30;99.90
65044;DHT22;51617;48.158;16.464;2022-12-29T06:39:07;2.40;99.90
65044;DHT22;51617;48.158;16.464;2022-12-29T06:41:33;2.50;99.90
65044;DHT22;51617;48.158;16.464;2022-12-29T06:43:59;2.40;99.70
65044;DHT22;51617;48.158;16.464;2022-12-29T06:46:24;2.50;99.50
65044;DHT22;51617;48.158;16.464;2022-12-29T06:48:50;2.50;99.70
65044;DHT22;51617;48.158;16.464;2022-12-29T06:51:16;2.50;99.80
65044;DHT22;51617;48.158;16.464;2022-12-29T06:53:41;2.50;99.80
65044;DHT22;51617;48.158;16.464;2022-12-29T06:56:07;2.50;99.70
65044;DHT22;51617;48.158;16.464;2022-12-29T06:58:33;2.60;99.70
65044;DHT22;51617;48.158;16.464;2022-12-29T07:00:59;2.60;99.70
65044;DHT22;51617;48.158;16.464;2022-12-29T07:03:24;2.70;99.70
65044;DHT22;51617;48.158;16.464;2022-12-29T07:05:50;2.70;99.60
65044;DHT22;51617;48.158;16.464;2022-12-29T07:08:16;2.70;99.60
65044;DHT22;51617;48.158;16.464;2022-12-29T07:10:42;2.80;99.80
65044;DHT22;51617;48.158;16.464;2022-12-29T07:13:07;2.80;99.60
65044;DHT22;51617;48.158;16.464;2022-12-29T07:15:34;2.90;99.50
65044;DHT22;51617;48.158;16.464;2022-12-29T07:17:59;2.90;99.60
65044;DHT22;51617;48.158;16.464;2022-12-29T07:20:25;3.00;99.50
65044;DHT22;51617;48.158;16.464;2022-12-29T07:22:51;3.00;99.50
65044;DHT22;51617;48.158;16.464;2022-12-29T07:25:16;3.00;99.60
65044;DHT22;51617;48.158;16.464;2022-12-29T07:27:42;3.10;99.60
65044;DHT22;51617;48.158;16.464;2022-12-29T07:30:08;3.00;99.50
65044;DHT22;51617;48.158;16.464;2022-12-29T07:32:34;3.10;99.60
65044;DHT22;51617;48.158;16.464;2022-12-29T07:35:00;3.10;99.60
65044;DHT22;51617;48.158;16.464;2022-12-29T07:37:26;3.10;99.50
65044;DHT22;51617;48.158;16.464;2022-12-29T07:39:51;3.20;99.60
65044;DHT22;51617;48.158;16.464;2022-12-29T07:42:17;3.30;99.50
65044;DHT22;51617;48.158;16.464;2022-12-29T07:44:43;3.30;99.30
65044;DHT22;51617;48.158;16.464;2022-12-29T07:47:08;3.40;99.20
65044;DHT22;51617;48.158;16.464;2022-12-29T07:49:34;3.40;99.20
65044;DHT22;51617;48.158;16.464;2022-12-29T07:52:00;3.40;99.30
65044;DHT22;51617;48.158;16.464;2022-12-29T07:54:26;3.40;99.50
65044;DHT22;51617;48.158;16.464;2022-12-29T07:56:51;3.40;99.20
65044;DHT22;51617;48.158;16.464;2022-12-29T07:59:17;3.40;99.30
65044;DHT22;51617;48.158;16.464;2022-12-29T08:01:43;3.50;99.40
65044;DHT22;51617;48.158;16.464;2022-12-29T08:04:08;3.50;99.20
65044;DHT22;51617;48.158;16.464;2022-12-29T08:06:34;3.50;99.20
65044;DHT22;51617;48.158;16.464;2022-12-29T08:09:00;3.50;99.20
65044;DHT22;51617;48.158;16.464;2022-12-29T08:11:27;3.60;99.20
65044;DHT22;51617;48.158;16.464;2022-12-29T08:13:52;3.50;99.10
65044;DHT22;51617;48.158;16.464;2022-12-29T08:16:20;3.50;99.10
65044;DHT22;51617;48.158;16.464;2022-12-29T08:18:46;3.40;99.20
65044;DHT22;51617;48.158;16.464;2022-12-29T08:21:12;3.40;99.10
65044;DHT22;51617;48.158;16.464;2022-12-29T08:23:38;3.40;99.30
65044;DHT22;51617;48.158;16.464;2022-12-29T08:26:04;3.30;99.50
65044;DHT22;51617;48.158;16.464;2022-12-29T08:28:31;3.30;99.50
65044;DHT22;51617;48.158;16.464;2022-12-29T08:30:58;3.30;99.70
65044;DHT22;51617;48.158;16.464;2022-12-29T08:33:25;3.30;99.70
65044;DHT22;51617;48.158;16.464;2022-12-29T08:35:51;3.40;99.70
65044;DHT22;51617;48.158;16.464;2022-12-29T08:38:16;3.40;99.90
65044;DHT22;51617;48.158;16.464;2022-12-29T08:40:43;3.40;99.90
65044;DHT22;51617;48.158;16.464;2022-12-29T08:43:09;3.40;99.90
65044;DHT22;51617;48.158;16.464;2022-12-29T08:45:35;3.50;99.80
65044;DHT22;51617;48.158;16.464;2022-12-29T08:48:01;3.50;99.90
65044;DHT22;51617;48.158;16.464;2022-12-29T08:50:27;3.50;99.90
65044;DHT22;51617;48.158;16.464;2022-12-29T08:52:52;3.60;99.90
65044;DHT22;51617;48.158;16.464;2022-12-29T08:55:18;3.60;99.80
65044;DHT22;51617;48.158;16.464;2022-12-29T08:57:43;3.70;99.90
65044;DHT22;51617;48.158;16.464;2022-12-29T09:00:10;3.80;99.80
65044;DHT22;51617;48.158;16.464;2022-12-29T09:02:35;3.80;99.80
65044;DHT22;51617;48.158;16.464;2022-12-29T09:05:01;3.90;99.80
65044;DHT22;51617;48.158;16.464;2022-12-29T09:07:27;3.90;99.70
65044;DHT22;51617;48.158;16.464;2022-12-29T09:09:53;3.80;99.60
65044;DHT22;51617;48.158;16.464;2022-12-29T09:12:18;3.80;99.50
65044;DHT22;51617;48.158;16.464;2022-12-29T09:14:46;3.80;99.50
65044;DHT22;51617;48.158;16.464;2022-12-29T09:17:12;3.80;99.60
65044;DHT22;51617;48.158;16.464;2022-12-29T09:19:56;3.80;99.50
65044;DHT22;51617;48.158;16.464;2022-12-29T09:22:21;3.80;99.30
65044;DHT22;51617;48.158;16.464;2022-12-29T09:24:47;3.80;99.30
65044;DHT22;51617;48.158;16.464;2022-12-29T09:27:13;3.70;99.40
65044;DHT22;51617;48.158;16.464;2022-12-29T09:29:38;3.70;99.60
65044;DHT22;51617;48.158;16.464;2022-12-29T09:32:04;3.80;99.50
65044;DHT22;51617;48.158;16.464;2022-12-29T09:34:30;3.80;99.40
65044;DHT22;51617;48.158;16.464;2022-12-29T09:36:55;3.80;99.30
65044;DHT22;51617;48.158;16.464;2022-12-29T09:39:22;3.80;99.30
65044;DHT22;51617;48.158;16.464;2022-12-29T09:41:57;3.80;99.40
65044;DHT22;51617;48.158;16.464;2022-12-29T09:47:11;3.80;99.30
65044;DHT22;51617;48.158;16.464;2022-12-29T09:52:18;3.80;99.60
65044;DHT22;51617;48.158;16.464;2022-12-29T09:57:29;4.00;99.30
65044;DHT22;51617;48.158;16.464;2022-12-29T10:00:03;3.90;99.30
65044;DHT22;51617;48.158;16.464;2022-12-29T10:03:02;4.00;99.50
65044;DHT22;51617;48.158;16.464;2022-12-29T10:10:42;4.10;99.10
65044;DHT22;51617;48.158;16.464;2022-12-29T10:18:12;4.20;99.00
65044;DHT22;51617;48.158;16.464;2022-12-29T10:23:52;4.20;98.90
65044;DHT22;51617;48.158;16.464;2022-12-29T10:26:21;4.20;98.90
65044;DHT22;51617;48.158;16.464;2022-12-29T10:31:33;4.20;98.90
65044;DHT22;51617;48.158;16.464;2022-12-29T10:34:05;4.20;99.00
65044;DHT22;51617;48.158;16.464;2022-12-29T10:36:42;4.20;99.00
65044;DHT22;51617;48.158;16.464;2022-12-29T10:39:33;4.30;99.00
65044;DHT22;51617;48.158;16.464;2022-12-29T10:42:15;4.30;99.10
65044;DHT22;51617;48.158;16.464;2022-12-29T10:44:46;4.30;99.00
65044;DHT22;51617;48.158;16.464;2022-12-29T10:47:18;4.40;98.90
65044;DHT22;51617;48.158;16.464;2022-12-29T10:49:46;4.50;99.10
65044;DHT22;51617;48.158;16.464;2022-12-29T10:52:14;4.50;99.10
65044;DHT22;51617;48.158;16.464;2022-12-29T10:54:51;4.50;99.10
65044;DHT22;51617;48.158;16.464;2022-12-29T10:57:37;4.60;99.00
65044;DHT22;51617;48.158;16.464;2022-12-29T11:00:12;4.70;98.80
65044;DHT22;51617;48.158;16.464;2022-12-29T11:08:09;4.80;98.50
65044;DHT22;51617;48.158;16.464;2022-12-29T11:10:38;4.80;98.80
65044;DHT22;51617;48.158;16.464;2022-12-29T11:13:17;4.80;98.90
65044;DHT22;51617;48.158;16.464;2022-12-29T11:15:45;4.80;99.00
65044;DHT22;51617;48.158;16.464;2022-12-29T11:20:43;4.90;99.30
65044;DHT22;51617;48.158;16.464;2022-12-29T11:23:41;4.90;98.70
65044;DHT22;51617;48.158;16.464;2022-12-29T11:26:20;5.00;98.50
65044;DHT22;51617;48.158;16.464;2022-12-29T11:31:43;5.00;98.50
65044;DHT22;51617;48.158;16.464;2022-12-29T11:36:46;5.10;98.40
65044;DHT22;51617;48.158;16.464;2022-12-29T11:39:33;5.10;98.60
65044;DHT22;51617;48.158;16.464;2022-12-29T11:42:00;5.20;98.80
65044;DHT22;51617;48.158;16.464;2022-12-29T11:44:34;5.20;98.40
65044;DHT22;51617;48.158;16.464;2022-12-29T11:47:01;5.30;98.30
65044;DHT22;51617;48.158;16.464;2022-12-29T11:49:27;5.30;98.30
65044;DHT22;51617;48.158;16.464;2022-12-29T11:51:54;5.30;98.40
65044;DHT22;51617;48.158;16.464;2022-12-29T11:54:25;5.30;98.10
65044;DHT22;51617;48.158;16.464;2022-12-29T11:56:54;5.30;98.40
65044;DHT22;51617;48.158;16.464;2022-12-29T12:04:48;5.60;98.20
65044;DHT22;51617;48.158;16.464;2022-12-29T12:07:28;5.60;98.00
65044;DHT22;51617;48.158;16.464;2022-12-29T12:09:59;5.60;98.20
65044;DHT22;51617;48.158;16.464;2022-12-29T12:12:38;5.70;98.00
65044;DHT22;51617;48.158;16.464;2022-12-29T12:15:05;5.70;97.80
65044;DHT22;51617;48.158;16.464;2022-12-29T12:20:19;5.50;97.90
65044;DHT22;51617;48.158;16.464;2022-12-29T12:30:57;5.60;98.10
65044;DHT22;51617;48.158;16.464;2022-12-29T12:33:46;5.60;97.90
65044;DHT22;51617;48.158;16.464;2022-12-29T12:39:12;5.80;97.80
65044;DHT22;51617;48.158;16.464;2022-12-29T13:10:25;6.30;96.70
65044;DHT22;51617;48.158;16.464;2022-12-29T13:15:56;6.30;96.80
65044;DHT22;51617;48.158;16.464;2022-12-29T13:18:30;6.30;96.80
65044;DHT22;51617;48.158;16.464;2022-12-29T13:21:02;6.20;96.70
65044;DHT22;51617;48.158;16.464;2022-12-29T13:27:17;6.10;96.90
65044;DHT22;51617;48.158;16.464;2022-12-29T13:30:10;6.00;96.90
65044;DHT22;51617;48.158;16.464;2022-12-29T13:37:34;5.70;97.30
65044;DHT22;51617;48.158;16.464;2022-12-29T13:40:13;5.60;97.40
65044;DHT22;51617;48.158;16.464;2022-12-29T13:42:41;5.50;97.60
65044;DHT22;51617;48.158;16.464;2022-12-29T13:45:15;5.40;97.70
65044;DHT22;51617;48.158;16.464;2022-12-29T13:47:57;5.30;97.90
65044;DHT22;51617;48.158;16.464;2022-12-29T13:50:29;5.20;98.10
65044;DHT22;51617;48.158;16.464;2022-12-29T13:55:59;5.10;98.30
65044;DHT22;51617;48.158;16.464;2022-12-29T13:58:47;5.00;98.50
65044;DHT22;51617;48.158;16.464;2022-12-29T14:04:02;4.90;98.80
65044;DHT22;51617;48.158;16.464;2022-12-29T14:06:30;4.90;98.80
65044;DHT22;51617;48.158;16.464;2022-12-29T14:08:59;4.90;98.70
65044;DHT22;51617;48.158;16.464;2022-12-29T14:11:37;4.90;98.80
65044;DHT22;51617;48.158;16.464;2022-12-29T14:14:22;4.80;98.80
65044;DHT22;51617;48.158;16.464;2022-12-29T14:16:48;4.70;99.00
65044;DHT22;51617;48.158;16.464;2022-12-29T14:19:25;4.70;99.20
65044;DHT22;51617;48.158;16.464;2022-12-29T14:21:55;4.60;99.40
65044;DHT22;51617;48.158;16.464;2022-12-29T14:37:36;4.60;99.50
65044;DHT22;51617;48.158;16.464;2022-12-29T14:42:30;4.40;99.80
65044;DHT22;51617;48.158;16.464;2022-12-29T14:50:04;4.30;99.90
65044;DHT22;51617;48.158;16.464;2022-12-29T14:52:31;4.40;99.90
65044;DHT22;51617;48.158;16.464;2022-12-29T14:55:28;4.40;99.90
65044;DHT22;51617;48.158;16.464;2022-12-29T14:57:51;4.30;99.90
65044;DHT22;51617;48.158;16.464;2022-12-29T15:00:21;4.30;99.90
65044;DHT22;51617;48.158;16.464;2022-12-29T15:02:50;4.30;99.90
65044;DHT22;51617;48.158;16.464;2022-12-29T15:05:40;4.20;99.90
65044;DHT22;51617;48.158;16.464;2022-12-29T15:08:10;4.10;99.90
65044;DHT22;51617;48.158;16.464;2022-12-29T15:10:47;4.00;99.90
65044;DHT22;51617;48.158;16.464;2022-12-29T15:13:22;4.00;99.90
65044;DHT22;51617;48.158;16.464;2022-12-29T15:15:48;3.90;99.90
65044;DHT22;51617;48.158;16.464;2022-12-29T15:18:21;3.90;99.90
65044;DHT22;51617;48.158;16.464;2022-12-29T15:20:51;3.80;99.90
65044;DHT22;51617;48.158;16.464;2022-12-29T15:23:19;3.90;99.90
65044;DHT22;51617;48.158;16.464;2022-12-29T15:25:53;3.90;99.90
65044;DHT22;51617;48.158;16.464;2022-12-29T15:28:20;3.90;99.90
65044;DHT22;51617;48.158;16.464;2022-12-29T15:30:56;3.80;99.90
65044;DHT22;51617;48.158;16.464;2022-12-29T15:33:27;3.80;99.90
65044;DHT22;51617;48.158;16.464;2022-12-29T15:35:55;3.70;99.90
65044;DHT22;51617;48.158;16.464;2022-12-29T15:38:26;3.80;99.90
65044;DHT22;51617;48.158;16.464;2022-12-29T15:41:00;3.70;99.90
65044;DHT22;51617;48.158;16.464;2022-12-29T15:43:36;3.80;99.90
65044;DHT22;51617;48.158;16.464;2022-12-29T15:46:04;3.80;99.90
65044;DHT22;51617;48.158;16.464;2022-12-29T15:48:30;3.80;99.90
65044;DHT22;51617;48.158;16.464;2022-12-29T15:50:57;3.80;99.90
65044;DHT22;51617;48.158;16.464;2022-12-29T15:53:27;3.80;99.90
65044;DHT22;51617;48.158;16.464;2022-12-29T15:56:01;3.80;99.90
65044;DHT22;51617;48.158;16.464;2022-12-29T15:58:48;3.90;99.90
65044;DHT22;51617;48.158;16.464;2022-12-29T16:01:28;3.80;99.90
65044;DHT22;51617;48.158;16.464;2022-12-29T16:03:56;3.80;99.90
65044;DHT22;51617;48.158;16.464;2022-12-29T16:06:37;3.70;99.90
65044;DHT22;51617;48.158;16.464;2022-12-29T16:09:17;3.80;99.90
65044;DHT22;51617;48.158;16.464;2022-12-29T16:14:23;3.70;99.90
65044;DHT22;51617;48.158;16.464;2022-12-29T16:16:50;3.70;99.90
65044;DHT22;51617;48.158;16.464;2022-12-29T16:19:23;3.70;99.90
65044;DHT22;51617;48.158;16.464;2022-12-29T16:21:50;3.70;99.90
65044;DHT22;51617;48.158;16.464;2022-12-29T16:24:22;3.70;99.90
65044;DHT22;51617;48.158;16.464;2022-12-29T16:26:58;3.70;99.90
65044;DHT22;51617;48.158;16.464;2022-12-29T16:29:25;3.70;99.90
65044;DHT22;51617;48.158;16.464;2022-12-29T16:31:53;3.70;99.90
65044;DHT22;51617;48.158;16.464;2022-12-29T16:37:03;3.50;99.90
65044;DHT22;51617;48.158;16.464;2022-12-29T16:39:37;3.50;99.90
65044;DHT22;51617;48.158;16.464;2022-12-29T16:42:33;3.50;99.90
65044;DHT22;51617;48.158;16.464;2022-12-29T16:47:41;3.50;99.90
65044;DHT22;51617;48.158;16.464;2022-12-29T16:50:13;3.50;99.90
65044;DHT22;51617;48.158;16.464;2022-12-29T16:52:42;3.40;99.90
65044;DHT22;51617;48.158;16.464;2022-12-29T16:55:16;3.40;99.90
65044;DHT22;51617;48.158;16.464;2022-12-29T16:57:44;3.40;99.90
65044;DHT22;51617;48.158;16.464;2022-12-29T17:00:21;3.40;99.90
65044;DHT22;51617;48.158;16.464;2022-12-29T17:02:54;3.40;99.90
65044;DHT22;51617;48.158;16.464;2022-12-29T17:05:20;3.30;99.90
65044;DHT22;51617;48.158;16.464;2022-12-29T17:07:46;3.30;99.90
65044;DHT22;51617;48.158;16.464;2022-12-29T17:10:13;3.30;99.90
65044;DHT22;51617;48.158;16.464;2022-12-29T17:12:41;3.30;99.90
65044;DHT22;51617;48.158;16.464;2022-12-29T17:15:32;3.30;99.90
65044;DHT22;51617;48.158;16.464;2022-12-29T17:18:00;3.30;99.90
65044;DHT22;51617;48.158;16.464;2022-12-29T17:20:27;3.20;99.90
65044;DHT22;51617;48.158;16.464;2022-12-29T17:22:55;3.20;99.90
65044;DHT22;51617;48.158;16.464;2022-12-29T17:25:28;3.20;99.90
65044;DHT22;51617;48.158;16.464;2022-12-29T17:28:07;3.10;99.90
65044;DHT22;51617;48.158;16.464;2022-12-29T17:30:37;3.20;99.90
65044;DHT22;51617;48.158;16.464;2022-12-29T17:33:12;3.10;99.90
65044;DHT22;51617;48.158;16.464;2022-12-29T17:35:38;3.10;99.90
65044;DHT22;51617;48.158;16.464;2022-12-29T17:38:28;3.10;99.90
65044;DHT22;51617;48.158;16.464;2022-12-29T17:40:54;3.10;99.90
65044;DHT22;51617;48.158;16.464;2022-12-29T17:43:20;3.10;99.90
65044;DHT22;51617;48.158;16.464;2022-12-29T17:45:56;3.10;99.90
65044;DHT22;51617;48.158;16.464;2022-12-29T17:48:22;3.00;99.90
65044;DHT22;51617;48.158;16.464;2022-12-29T17:50:50;2.90;99.90
65044;DHT22;51617;48.158;16.464;2022-12-29T17:53:23;2.90;99.90
65044;DHT22;51617;48.158;16.464;2022-12-29T17:55:50;2.90;99.90
65044;DHT22;51617;48.158;16.464;2022-12-29T17:58:29;2.90;99.90
65044;DHT22;51617;48.158;16.464;2022-12-29T18:01:00;2.90;99.90
65044;DHT22;51617;48.158;16.464;2022-12-29T18:05:57;3.00;99.90
65044;DHT22;51617;48.158;16.464;2022-12-29T18:08:23;3.00;99.90
65044;DHT22;51617;48.158;16.464;2022-12-29T18:10:50;2.90;99.90
65044;DHT22;51617;48.158;16.464;2022-12-29T18:13:24;2.90;99.90
65044;DHT22;51617;48.158;16.464;2022-12-29T18:15:51;3.00;99.90
65044;DHT22;51617;48.158;16.464;2022-12-29T18:18:19;3.00;99.90
65044;DHT22;51617;48.158;16.464;2022-12-29T18:20:48;2.90;99.90
65044;DHT22;51617;48.158;16.464;2022-12-29T18:28:14;2.90;99.90
65044;DHT22;51617;48.158;16.464;2022-12-29T18:30:39;2.90;99.90
65044;DHT22;51617;48.158;16.464;2022-12-29T18:33:05;3.00;99.90
65044;DHT22;51617;48.158;16.464;2022-12-29T18:35:38;3.00;99.90
65044;DHT22;51617;48.158;16.464;2022-12-29T18:38:05;3.10;99.90
65044;DHT22;51617;48.158;16.464;2022-12-29T18:40:34;3.10;99.90
65044;DHT22;51617;48.158;16.464;2022-12-29T18:43:00;3.00;99.90
65044;DHT22;51617;48.158;16.464;2022-12-29T18:45:29;3.00;99.90